Latest Weather Observations for Spitfire Channel

IDQ60801

Issued at 1:35 am EST Friday 19 September 2014 (issued every 30 minutes, with the page automatically refreshed every 10 minutes)

About weather observations | Map of weather stations | Latest weather observations for QLD | Other Formats
Station Details ID: 040927 Name: SPITFIRE CHANNEL BEACON Lat: -27.05 Lon: 153.27 Height: 7.0 m
Data from the previous 72 hours. | See also: Recent months for locations in Queensland
Date/Time
EST
Temp
°C
App
Temp
°C
Dew
Point
Rel
Hum
%
Delta-T
°C
Wind Press
QNH
hPa
Press
MSL
hPa
Rain
since 9 am
mm
Dir
 
Spd
km/h
Gust
km/h
Spd
kts
Gust
kts
19/01:30am - - - - - SW 7 9 4 5 - - -
19/01:00am - - - - - WSW 7 7 4 4 - - -
19/12:30am - - - - - WSW 7 9 4 5 - - -
19/12:00am - - - - - N 9 11 5 6 - - -
 
Date/Time
EST
Temp
°C
App
Temp
°C
Dew
Point
Rel
Hum
%
Delta-T
°C
Wind Press
QNH
hPa
Press
MSL
hPa
Rain
since 9 am
mm
Dir
 
Spd
km/h
Gust
km/h
Spd
kts
Gust
kts
18/11:30pm - - - - - N 11 15 6 8 - - -
18/11:00pm - - - - - N 11 13 6 7 - - -
18/10:30pm - - - - - NNE 9 11 5 6 - - -
18/10:00pm - - - - - N 9 13 5 7 - - -
18/09:30pm - - - - - N 15 17 8 9 - - -
18/09:00pm - - - - - NNE 17 20 9 11 - - -
18/08:30pm - - - - - NNE 19 22 10 12 - - -
18/08:00pm - - - - - NNE 20 24 11 13 - - -
18/07:30pm - - - - - NNE 19 22 10 12 - - -
18/07:00pm - - - - - NNE 20 24 11 13 - - -
18/06:30pm - - - - - NE 20 24 11 13 - - -
18/06:00pm - - - - - NE 20 24 11 13 - - -
18/05:30pm - - - - - NE 20 24 11 13 - - -
18/05:00pm - - - - - NE 22 26 12 14 - - -
18/04:30pm - - - - - NE 26 30 14 16 - - -
18/04:00pm - - - - - NE 26 32 14 17 - - -
18/03:30pm - - - - - NE 22 26 12 14 - - -
18/03:00pm - - - - - NE 22 28 12 15 - - -
18/02:30pm - - - - - E 11 13 6 7 - - -
18/02:00pm - - - - - E 13 15 7 8 - - -
18/01:30pm - - - - - E 13 15 7 8 - - -
18/01:00pm - - - - - E 15 17 8 9 - - -
18/12:30pm - - - - - E 13 15 7 8 - - -
18/12:00pm - - - - - ESE 11 13 6 7 - - -
18/11:30am - - - - - ESE 9 13 5 7 - - -
18/11:00am - - - - - SE 9 15 5 8 - - -
18/10:30am - - - - - SSE 13 17 7 9 - - -
18/10:00am - - - - - SSE 15 19 8 10 - - -
18/09:30am - - - - - S 20 24 11 13 - - -
18/09:00am - - - - - S 20 24 11 13 - - -
18/08:30am - - - - - S 24 28 13 15 - - -
18/08:00am - - - - - S 24 28 13 15 - - -
18/07:30am - - - - - SSW 24 28 13 15 - - -
18/07:00am - - - - - SW 17 20 9 11 - - -
18/06:30am - - - - - SW 15 19 8 10 - - -
18/06:00am - - - - - SW 17 19 9 10 - - -
18/05:30am - - - - - SW 17 19 9 10 - - -
18/05:00am - - - - - SW 13 15 7 8 - - -
18/04:30am - - - - - SW 13 15 7 8 - - -
18/04:00am - - - - - SSW 20 22 11 12 - - -
18/03:30am - - - - - SSW 20 26 11 14 - - -
18/03:00am - - - - - SW 13 15 7 8 - - -
18/02:30am - - - - - SW 11 13 6 7 - - -
18/02:00am - - - - - SW 11 15 6 8 - - -
18/01:30am - - - - - SW 13 17 7 9 - - -
18/01:00am - - - - - SSW 13 17 7 9 - - -
18/12:30am - - - - - SSW 11 13 6 7 - - -
18/12:00am - - - - - S 11 13 6 7 - - -
 
Date/Time
EST
Temp
°C
App
Temp
°C
Dew
Point
Rel
Hum
%
Delta-T
°C
Wind Press
QNH
hPa
Press
MSL
hPa
Rain
since 9 am
mm
Dir
 
Spd
km/h
Gust
km/h
Spd
kts
Gust
kts
17/11:30pm - - - - - S 13 15 7 8 - - -
17/11:00pm - - - - - SSW 11 15 6 8 - - -
17/10:30pm - - - - - SSW 13 17 7 9 - - -
17/10:00pm - - - - - SSW 15 17 8 9 - - -
17/09:30pm - - - - - SW 13 15 7 8 - - -
17/09:00pm - - - - - SW 7 7 4 4 - - -
17/08:30pm - - - - - S 2 6 1 3 - - -
17/08:00pm - - - - - NW 4 6 2 3 - - -
17/07:30pm - - - - - N 7 9 4 5 - - -
17/07:00pm - - - - - N 15 19 8 10 - - -
17/06:30pm - - - - - N 17 20 9 11 - - -
17/06:00pm - - - - - N 17 20 9 11 - - -
17/05:30pm - - - - - N 20 22 11 12 - - -
17/05:00pm - - - - - N 22 26 12 14 - - -
17/04:30pm - - - - - N 19 22 10 12 - - -
17/04:00pm - - - - - N 22 24 12 13 - - -
17/03:30pm - - - - - N 22 26 12 14 - - -
17/03:00pm - - - - - N 26 30 14 16 - - -
17/02:30pm - - - - - N 24 28 13 15 - - -
17/02:00pm - - - - - N 20 24 11 13 - - -
17/01:30pm - - - - - N 20 24 11 13 - - -
17/01:00pm - - - - - N 17 20 9 11 - - -
17/12:30pm - - - - - N 13 17 7 9 - - -
17/12:00pm - - - - - N 15 19 8 10 - - -
17/11:30am - - - - - N 13 15 7 8 - - -
17/11:00am - - - - - N 11 13 6 7 - - -
17/10:30am - - - - - NNW 11 13 6 7 - - -
17/10:00am - - - - - N 11 15 6 8 - - -
17/09:30am - - - - - NNW 11 11 6 6 - - -
17/09:00am - - - - - WNW 13 15 7 8 - - -
17/08:30am - - - - - WNW 15 17 8 9 - - -
17/08:00am - - - - - NW 19 20 10 11 - - -
17/07:30am - - - - - NW 20 24 11 13 - - -
17/07:00am - - - - - NW 22 26 12 14 - - -
17/06:30am - - - - - NW 28 32 15 17 - - -
17/06:00am - - - - - NW 26 30 14 16 - - -
17/05:30am - - - - - NW 30 35 16 19 - - -
17/05:00am - - - - - NW 33 37 18 20 - - -
17/04:30am - - - - - NW 37 41 20 22 - - -
17/04:00am - - - - - NNW 35 43 19 23 - - -
17/03:30am - - - - - NNW 39 48 21 26 - - -
17/03:00am - - - - - NNW 37 43 20 23 - - -
17/02:30am - - - - - NNW 37 43 20 23 - - -
17/02:00am - - - - - NNW 37 43 20 23 - - -
17/01:30am - - - - - NNW 37 44 20 24 - - -
17/01:00am - - - - - NNW 37 48 20 26 - - -
17/12:30am - - - - - NNW 37 43 20 23 - - -
17/12:00am - - - - - NNW 37 44 20 24 - - -
 
Date/Time
EST
Temp
°C
App
Temp
°C
Dew
Point
Rel
Hum
%
Delta-T
°C
Wind Press
QNH
hPa
Press
MSL
hPa
Rain
since 9 am
mm
Dir
 
Spd
km/h
Gust
km/h
Spd
kts
Gust
kts
16/11:30pm - - - - - NNW 41 50 22 27 - - -
16/11:00pm - - - - - NNW 43 52 23 28 - - -
16/10:30pm - - - - - NNW 41 50 22 27 - - -
16/10:00pm - - - - - NNW 41 48 22 26 - - -
16/09:30pm - - - - - NNW 35 43 19 23 - - -
16/09:00pm - - - - - N 33 39 18 21 - - -
16/08:30pm - - - - - N 30 35 16 19 - - -
16/08:00pm - - - - - N 32 37 17 20 - - -
16/07:30pm - - - - - N 22 30 12 16 - - -
16/07:00pm - - - - - WSW 17 24 9 13 - - -
16/06:49pm - - - - - NW 22 26 12 14 - - -
16/06:30pm - - - - - N 43 50 23 27 - - -
16/06:00pm - - - - - N 43 52 23 28 - - -
16/05:30pm - - - - - N 48 61 26 33 - - -
16/05:13pm - - - - - N 41 63 22 34 - - -
16/05:00pm - - - - - N 41 52 22 28 - - -
16/04:30pm - - - - - N 46 57 25 31 - - -
16/04:00pm - - - - - N 41 50 22 27 - - -
16/03:30pm - - - - - N 33 41 18 22 - - -
16/03:00pm - - - - - N 39 48 21 26 - - -
16/02:30pm - - - - - N 37 44 20 24 - - -
16/02:00pm - - - - - N 37 44 20 24 - - -
16/01:30pm - - - - - N 35 43 19 23 - - -
16/01:00pm - - - - - N 37 43 20 23 - - -
16/12:30pm - - - - - N 35 41 19 22 - - -
16/12:00pm - - - - - N 35 43 19 23 - - -
16/11:30am - - - - - N 33 39 18 21 - - -
16/11:00am - - - - - N 30 33 16 18 - - -
16/10:30am - - - - - N 26 30 14 16 - - -
16/10:00am - - - - - N 24 28 13 15 - - -
16/09:30am - - - - - NNW 22 28 12 15 - - -
16/09:00am - - - - - NNW 26 30 14 16 - - -
16/08:30am - - - - - NNW 24 30 13 16 - - -
16/08:00am - - - - - NW 26 30 14 16 - - -
16/07:30am - - - - - NW 24 28 13 15 - - -
16/07:00am - - - - - NNW 24 28 13 15 - - -
16/06:30am - - - - - NW 24 28 13 15 - - -
16/06:00am - - - - - NW 22 26 12 14 - - -
16/05:30am - - - - - NW 24 26 13 14 - - -
16/05:00am - - - - - NW 24 30 13 16 - - -
16/04:30am - - - - - NW 28 33 15 18 - - -
16/04:00am - - - - - NW 28 33 15 18 - - -
16/03:30am - - - - - NW 28 32 15 17 - - -
16/03:00am - - - - - NW 26 32 14 17 - - -
16/02:30am - - - - - NW 32 37 17 20 - - -
16/02:00am - - - - - NW 30 35 16 19 - - -

Other Formats:

Comma delimited format used in spreadsheet applications
http://www.bom.gov.au/fwo/IDQ60801/IDQ60801.94581.axf

JavaScript Object Notation format (JSON) in row-major order
http://www.bom.gov.au/fwo/IDQ60801/IDQ60801.94581.json